createdAt,value
2023-01-25T00:03:17.000Z,1.3
2023-01-25T00:22:32.456Z,1.2
2023-01-25T00:41:46.040Z,1
2023-01-25T01:01:00.785Z,1
2023-01-25T01:20:17.290Z,1
2023-01-25T01:39:31.502Z,0.8
2023-01-25T01:58:47.611Z,1
2023-01-25T02:18:06.380Z,0.9
2023-01-25T02:37:18.277Z,0.9
2023-01-25T02:56:33.407Z,0.7
2023-01-25T03:15:56.191Z,0.8
2023-01-25T03:35:02.217Z,0.8
2023-01-25T03:54:16.886Z,0.9
2023-01-25T04:13:30.396Z,0.6
2023-01-25T04:32:44.635Z,0.5
2023-01-25T04:51:59.807Z,0.8
2023-01-25T05:11:15.350Z,0.9
2023-01-25T05:30:27.256Z,0.6
2023-01-25T05:49:42.102Z,0.5
2023-01-25T06:08:56.509Z,0.4
2023-01-25T06:28:11.924Z,0.4
2023-01-25T06:47:25.726Z,0.3
2023-01-25T07:06:40.327Z,0.6
2023-01-25T07:25:54.190Z,0.6
2023-01-25T07:45:10.684Z,0.7
2023-01-25T08:04:22.688Z,0.6
2023-01-25T08:23:36.633Z,0.6
2023-01-25T08:42:52.103Z,0.8
2023-01-25T09:02:06.538Z,0.8
2023-01-25T09:21:21.847Z,0.9
2023-01-25T09:40:34.461Z,0.7
2023-01-25T09:59:50.232Z,0.5
2023-01-25T10:19:05.911Z,0.8
2023-01-25T10:38:21.044Z,0.8
2023-01-25T10:57:36.759Z,0.9
2023-01-25T11:16:52.702Z,1.2
2023-01-25T11:36:07.105Z,1.1
2023-01-25T11:55:26.039Z,1
2023-01-25T12:14:34.799Z,0.7
2023-01-25T12:33:49.079Z,0.7
2023-01-25T12:53:04.041Z,0.7
2023-01-25T13:12:21.055Z,0.9
2023-01-25T13:31:54.353Z,0.5
2023-01-25T13:50:54.469Z,0.5
2023-01-25T14:10:12.345Z,0.9
2023-01-25T14:29:33.934Z,0.6
2023-01-25T14:48:39.021Z,0.8
2023-01-25T15:07:50.085Z,0.7
2023-01-25T15:27:06.096Z,0.7
2023-01-25T15:46:15.581Z,0.6
2023-01-25T16:05:30.028Z,0.5
2023-01-25T16:24:43.872Z,0.5
2023-01-25T16:43:57.686Z,0
2023-01-25T17:03:12.030Z,0.2
2023-01-25T17:22:26.360Z,-0.1
2023-01-25T17:41:37.644Z,0.1
2023-01-25T18:01:14.538Z,0.1
2023-01-25T18:20:11.440Z,-0.3
2023-01-25T18:39:27.922Z,-0.1
2023-01-25T18:58:41.720Z,-0.3
2023-01-25T19:17:57.026Z,-0.2
2023-01-25T19:37:11.302Z,-0.2
2023-01-25T19:56:24.950Z,-0.4
2023-01-25T20:15:39.212Z,-0.4
2023-01-25T20:34:54.529Z,-0.1
2023-01-25T20:54:06.419Z,-0.3
2023-01-25T21:13:18.022Z,-0.3
2023-01-25T21:32:31.069Z,-0.3
2023-01-25T21:51:45.423Z,-0.5
2023-01-25T22:11:07.787Z,-0.3
2023-01-25T22:30:17.434Z,-0.4
2023-01-25T22:49:32.949Z,-0.7
2023-01-25T23:08:44.901Z,-0.5
2023-01-25T23:28:01.169Z,-0.4
2023-01-25T23:47:16.051Z,-0.5
